createdAt,value
2018-07-30T00:00:54.801Z,5.60
2018-07-30T00:03:23.717Z,5.70
2018-07-30T00:05:52.649Z,6.05
2018-07-30T00:08:21.554Z,5.73
2018-07-30T00:10:50.481Z,6.20
2018-07-30T00:13:19.068Z,6.10
2018-07-30T00:15:47.890Z,6.05
2018-07-30T00:18:16.791Z,5.65
2018-07-30T00:20:45.702Z,5.90
2018-07-30T00:23:14.586Z,7.20
2018-07-30T00:25:43.516Z,6.95
2018-07-30T00:28:12.422Z,5.95
2018-07-30T00:30:41.322Z,6.27
2018-07-30T00:33:10.242Z,6.12
2018-07-30T00:35:39.145Z,5.25
2018-07-30T00:38:08.255Z,5.75
2018-07-30T00:40:37.167Z,5.37
2018-07-30T00:43:06.046Z,6.50
2018-07-30T00:45:35.066Z,6.20
2018-07-30T00:48:04.046Z,6.80
2018-07-30T00:50:33.003Z,6.55
2018-07-30T00:53:01.909Z,6.67
2018-07-30T00:55:30.832Z,6.65
2018-07-30T00:57:59.762Z,6.95
2018-07-30T01:00:28.759Z,6.75
2018-07-30T01:02:57.674Z,6.55
2018-07-30T01:05:26.607Z,6.17
2018-07-30T01:07:55.481Z,5.60
2018-07-30T01:10:24.402Z,6.40
2018-07-30T01:12:53.755Z,6.00
2018-07-30T01:15:22.638Z,5.92
2018-07-30T01:17:51.537Z,6.35
2018-07-30T01:20:20.459Z,5.60
2018-07-30T01:22:49.325Z,6.28
2018-07-30T01:25:18.254Z,6.42
2018-07-30T01:27:47.161Z,6.95
2018-07-30T01:30:16.093Z,7.72
2018-07-30T01:32:44.978Z,6.45
2018-07-30T01:35:13.870Z,6.60
2018-07-30T01:37:42.853Z,7.20
2018-07-30T01:40:11.754Z,6.58
2018-07-30T01:42:40.650Z,6.95
2018-07-30T01:45:09.571Z,6.15
2018-07-30T01:47:38.454Z,6.55
2018-07-30T01:50:07.381Z,7.60
2018-07-30T01:52:36.312Z,6.37
2018-07-30T01:55:05.278Z,7.35
2018-07-30T01:57:34.197Z,6.25
2018-07-30T02:00:03.166Z,7.25
2018-07-30T02:02:35.266Z,6.75
2018-07-30T02:05:04.316Z,6.42
2018-07-30T02:07:33.302Z,6.17
2018-07-30T02:10:02.262Z,7.50
2018-07-30T02:12:31.204Z,7.17
2018-07-30T02:15:00.277Z,6.70
2018-07-30T02:17:29.202Z,7.35
2018-07-30T02:19:58.470Z,6.60
2018-07-30T02:22:27.398Z,6.80
2018-07-30T02:24:56.399Z,6.45
2018-07-30T02:27:26.290Z,6.90
2018-07-30T02:29:55.186Z,6.62
2018-07-30T02:32:24.193Z,6.97
2018-07-30T02:34:53.111Z,6.62
2018-07-30T02:37:22.070Z,7.47
2018-07-30T02:39:50.972Z,6.35
2018-07-30T02:42:20.080Z,6.37
2018-07-30T02:44:48.962Z,6.35
2018-07-30T02:47:18.062Z,6.80
2018-07-30T02:49:46.951Z,7.20
2018-07-30T02:52:15.970Z,7.30
2018-07-30T02:54:44.866Z,7.03
2018-07-30T02:57:13.783Z,7.58
2018-07-30T02:59:42.737Z,7.50
2018-07-30T03:02:11.648Z,6.60
2018-07-30T03:04:40.553Z,6.87
2018-07-30T03:07:09.488Z,7.35
2018-07-30T03:09:38.372Z,6.92
2018-07-30T03:12:07.293Z,6.55
2018-07-30T03:14:36.182Z,7.05
2018-07-30T03:17:05.190Z,7.28
2018-07-30T03:19:34.097Z,6.90
2018-07-30T03:22:03.029Z,7.78
2018-07-30T03:24:31.937Z,6.40
2018-07-30T03:27:01.006Z,6.28
2018-07-30T03:29:29.915Z,7.17
2018-07-30T03:31:58.833Z,7.95
2018-07-30T03:34:27.766Z,6.92
2018-07-30T03:36:56.694Z,7.15
2018-07-30T03:39:25.641Z,7.20
2018-07-30T03:41:54.575Z,7.62
2018-07-30T03:44:23.746Z,6.80
2018-07-30T03:46:52.646Z,6.97
2018-07-30T03:49:21.582Z,7.70
2018-07-30T03:51:50.558Z,7.25
2018-07-30T03:54:19.486Z,7.65
2018-07-30T03:56:48.422Z,8.65
2018-07-30T03:59:17.430Z,7.30
2018-07-30T04:01:46.361Z,7.10
2018-07-30T04:04:15.243Z,6.70
2018-07-30T04:06:44.148Z,7.10
2018-07-30T04:09:13.019Z,7.45
2018-07-30T04:11:41.917Z,7.97
2018-07-30T04:14:10.847Z,7.75
2018-07-30T04:16:45.234Z,7.20
2018-07-30T04:19:14.181Z,6.87
2018-07-30T04:21:43.358Z,6.87
2018-07-30T04:24:12.247Z,6.70
2018-07-30T04:26:41.198Z,6.72
2018-07-30T04:29:10.082Z,6.78
2018-07-30T04:31:38.986Z,5.90
2018-07-30T04:34:07.930Z,6.97
2018-07-30T04:36:37.403Z,6.30
2018-07-30T04:39:11.408Z,7.10
2018-07-30T04:41:40.318Z,7.03
2018-07-30T04:44:09.323Z,6.40
2018-07-30T04:46:38.547Z,6.42
2018-07-30T04:49:07.453Z,7.75
2018-07-30T04:51:37.007Z,6.80
2018-07-30T04:54:06.173Z,7.12
2018-07-30T04:56:35.102Z,6.55
2018-07-30T04:59:04.054Z,6.50
2018-07-30T05:01:32.953Z,7.08
2018-07-30T05:04:01.891Z,6.45
2018-07-30T05:06:30.870Z,7.37
2018-07-30T05:08:59.806Z,7.60
2018-07-30T05:11:28.758Z,7.35
2018-07-30T05:13:57.649Z,6.85
2018-07-30T05:16:26.615Z,7.90
2018-07-30T05:18:55.536Z,7.75
2018-07-30T05:21:24.446Z,7.28
2018-07-30T05:23:53.365Z,6.87
2018-07-30T05:26:22.262Z,6.37
2018-07-30T05:28:51.150Z,7.67
2018-07-30T05:31:20.094Z,7.50
2018-07-30T05:33:52.135Z,8.13
2018-07-30T05:36:22.182Z,6.75
2018-07-30T05:38:51.167Z,7.20
2018-07-30T05:41:20.468Z,7.47
2018-07-30T05:43:49.522Z,7.53
2018-07-30T05:46:18.767Z,7.58
2018-07-30T05:48:47.798Z,6.15
2018-07-30T05:51:16.678Z,6.97
2018-07-30T05:53:45.639Z,6.47
2018-07-30T05:56:14.566Z,6.60
2018-07-30T05:58:43.466Z,6.65
2018-07-30T06:01:12.426Z,7.77
2018-07-30T06:03:41.313Z,7.25
2018-07-30T06:06:10.234Z,6.53
2018-07-30T06:08:39.117Z,6.50
2018-07-30T06:11:07.990Z,6.67
2018-07-30T06:13:37.042Z,6.70
2018-07-30T06:16:05.989Z,7.27
2018-07-30T06:18:34.882Z,6.72
2018-07-30T06:21:03.937Z,7.90
2018-07-30T06:23:32.814Z,7.13
2018-07-30T06:26:01.714Z,8.90
2018-07-30T06:28:30.631Z,7.13
2018-07-30T06:30:59.542Z,7.97
2018-07-30T06:33:28.443Z,6.00
2018-07-30T06:35:57.358Z,7.20
2018-07-30T06:38:26.282Z,6.50
2018-07-30T06:40:55.105Z,6.00
2018-07-30T06:43:24.035Z,6.60
2018-07-30T06:45:52.918Z,6.23
2018-07-30T06:48:22.276Z,6.30
2018-07-30T06:50:51.206Z,6.40
2018-07-30T06:53:20.167Z,6.43
2018-07-30T06:55:49.006Z,5.93
2018-07-30T06:58:18.338Z,5.83
2018-07-30T07:00:47.239Z,6.30
2018-07-30T07:03:16.173Z,5.47
2018-07-30T07:05:45.011Z,5.30
2018-07-30T07:08:14.207Z,5.40
2018-07-30T07:10:43.104Z,5.30
2018-07-30T07:13:12.086Z,5.23
2018-07-30T07:15:40.975Z,5.60
2018-07-30T07:18:09.891Z,5.80
2018-07-30T07:20:38.860Z,5.23
2018-07-30T07:23:07.759Z,4.97
2018-07-30T07:25:36.666Z,5.43
2018-07-30T07:28:05.633Z,5.70
2018-07-30T07:30:34.468Z,5.67
2018-07-30T07:33:03.440Z,5.47
2018-07-30T07:35:32.334Z,5.90
2018-07-30T07:38:00.930Z,5.30
2018-07-30T07:40:29.731Z,4.90
2018-07-30T07:42:58.351Z,5.43
2018-07-30T07:45:27.182Z,5.70
2018-07-30T07:47:56.123Z,5.10
2018-07-30T07:50:25.096Z,5.07
2018-07-30T07:52:54.034Z,5.53
2018-07-30T07:55:22.933Z,5.40
2018-07-30T07:57:51.913Z,4.90
2018-07-30T08:00:20.795Z,4.73
2018-07-30T08:02:49.703Z,5.47
2018-07-30T08:05:18.759Z,4.83
2018-07-30T08:07:48.523Z,5.00
2018-07-30T08:10:17.422Z,4.97
2018-07-30T08:12:46.328Z,5.17
2018-07-30T08:15:15.224Z,5.40
2018-07-30T08:17:44.170Z,5.13
2018-07-30T08:20:14.598Z,7.63
2018-07-30T08:22:43.694Z,5.20
2018-07-30T08:25:13.272Z,4.93
2018-07-30T08:27:42.891Z,4.70
2018-07-30T08:30:11.810Z,5.00
2018-07-30T08:32:40.751Z,4.80
2018-07-30T08:35:09.702Z,6.37
2018-07-30T08:37:38.713Z,5.70
2018-07-30T08:40:08.739Z,5.80
2018-07-30T08:42:38.596Z,5.70
2018-07-30T08:45:07.786Z,4.80
2018-07-30T08:47:36.694Z,5.30
2018-07-30T08:50:06.060Z,4.80
2018-07-30T08:52:35.146Z,3.80
2018-07-30T08:55:04.615Z,4.40
2018-07-30T08:57:33.533Z,4.40
2018-07-30T09:00:02.571Z,4.77
2018-07-30T09:02:31.488Z,5.33
2018-07-30T09:05:00.495Z,5.43
2018-07-30T09:07:29.477Z,5.77
2018-07-30T09:09:58.558Z,5.70
2018-07-30T09:12:27.597Z,4.77
2018-07-30T09:14:56.505Z,4.80
2018-07-30T09:17:25.398Z,4.70
2018-07-30T09:19:54.443Z,6.63
2018-07-30T09:22:23.406Z,5.60
2018-07-30T09:24:52.623Z,4.83
2018-07-30T09:27:21.496Z,4.23
2018-07-30T09:29:56.825Z,4.90
2018-07-30T09:32:25.689Z,5.00
2018-07-30T09:34:54.634Z,5.37
2018-07-30T09:37:23.582Z,4.80
2018-07-30T09:39:52.694Z,4.80
2018-07-30T09:42:21.574Z,4.40
2018-07-30T09:44:50.500Z,4.10
2018-07-30T09:47:19.682Z,4.80
2018-07-30T09:49:48.562Z,4.40
2018-07-30T09:52:17.462Z,4.17
2018-07-30T09:54:46.462Z,4.97
2018-07-30T09:57:15.379Z,4.90
2018-07-30T09:59:44.302Z,4.10
2018-07-30T10:02:13.229Z,4.70
2018-07-30T10:04:44.339Z,5.20
2018-07-30T10:07:13.975Z,4.30
2018-07-30T10:09:42.934Z,4.40
2018-07-30T10:12:11.862Z,4.77
2018-07-30T10:14:40.807Z,4.50
2018-07-30T10:17:09.717Z,4.47
2018-07-30T10:19:38.634Z,5.17
2018-07-30T10:22:07.558Z,4.20
2018-07-30T10:24:36.466Z,4.37
2018-07-30T10:27:05.416Z,4.57
2018-07-30T10:29:34.315Z,4.67
2018-07-30T10:32:03.388Z,4.20
2018-07-30T10:34:32.360Z,4.30
2018-07-30T10:37:01.442Z,4.30
2018-07-30T10:39:30.453Z,4.67
2018-07-30T10:41:59.489Z,4.30
2018-07-30T10:44:28.602Z,3.73
2018-07-30T10:46:57.269Z,4.23
2018-07-30T10:49:26.212Z,4.13
2018-07-30T10:51:55.074Z,4.60
2018-07-30T10:54:24.022Z,4.60
2018-07-30T10:56:52.643Z,4.20
2018-07-30T10:59:21.479Z,4.07
2018-07-30T11:01:50.393Z,4.27
2018-07-30T11:04:19.285Z,4.00
2018-07-30T11:06:48.246Z,3.60
2018-07-30T11:09:17.205Z,4.60
2018-07-30T11:11:46.218Z,4.33
2018-07-30T11:14:15.180Z,4.00
2018-07-30T11:16:44.072Z,4.10
2018-07-30T11:19:12.999Z,4.13
2018-07-30T11:21:41.949Z,4.00
2018-07-30T11:24:10.891Z,4.37
2018-07-30T11:26:39.954Z,4.27
2018-07-30T11:29:08.854Z,4.33
2018-07-30T11:31:37.794Z,3.37
2018-07-30T11:34:06.746Z,4.17
2018-07-30T11:36:35.697Z,3.90
2018-07-30T11:39:08.515Z,4.03
2018-07-30T11:41:37.542Z,4.30
2018-07-30T11:44:13.018Z,3.80
2018-07-30T11:46:44.993Z,3.80
2018-07-30T11:49:13.930Z,3.70
2018-07-30T11:51:42.818Z,4.10
2018-07-30T11:54:11.811Z,4.27
2018-07-30T11:56:40.699Z,4.50
2018-07-30T11:59:09.598Z,3.63
2018-07-30T12:01:38.585Z,4.27
2018-07-30T12:04:07.483Z,3.90
2018-07-30T12:06:36.367Z,4.43
2018-07-30T12:09:06.766Z,3.90
2018-07-30T12:11:35.905Z,4.03
2018-07-30T12:14:04.891Z,3.83
2018-07-30T12:16:34.113Z,4.50
2018-07-30T12:19:03.038Z,4.00
2018-07-30T12:21:31.677Z,4.30
2018-07-30T12:24:00.538Z,3.80
2018-07-30T12:26:29.469Z,3.73
2018-07-30T12:28:58.434Z,3.60
2018-07-30T12:31:27.177Z,3.50
2018-07-30T12:33:56.066Z,3.60
2018-07-30T12:36:25.059Z,3.80
2018-07-30T12:38:54.884Z,3.57
2018-07-30T12:41:23.974Z,3.87
2018-07-30T12:43:52.924Z,4.70
2018-07-30T12:46:22.054Z,3.50
2018-07-30T12:48:50.940Z,3.50
2018-07-30T12:51:19.877Z,4.30
2018-07-30T12:53:48.743Z,3.60
2018-07-30T12:56:17.630Z,3.37
2018-07-30T12:58:46.546Z,4.10
2018-07-30T13:01:15.418Z,3.80
2018-07-30T13:03:44.297Z,4.03
2018-07-30T13:06:13.214Z,3.20
2018-07-30T13:08:42.134Z,4.30
2018-07-30T13:11:10.757Z,4.17
2018-07-30T13:13:39.564Z,3.97
2018-07-30T13:16:08.453Z,3.70
2018-07-30T13:18:37.336Z,3.90
2018-07-30T13:21:06.341Z,4.03
2018-07-30T13:23:35.177Z,3.50
2018-07-30T13:26:04.098Z,3.77
2018-07-30T13:28:32.999Z,4.27
2018-07-30T13:31:02.447Z,3.70
2018-07-30T13:33:31.398Z,3.47
2018-07-30T13:36:00.575Z,3.67
2018-07-30T13:38:29.659Z,3.50
2018-07-30T13:40:58.910Z,3.70
2018-07-30T13:43:27.899Z,3.83
2018-07-30T13:45:56.843Z,3.47
2018-07-30T13:48:25.730Z,3.60
2018-07-30T13:50:55.172Z,3.47
2018-07-30T13:53:24.073Z,3.67
2018-07-30T13:55:52.993Z,5.20
2018-07-30T13:58:21.887Z,4.30
2018-07-30T14:00:50.793Z,4.30
2018-07-30T14:03:19.661Z,4.50
2018-07-30T14:05:48.578Z,3.50
2018-07-30T14:08:17.475Z,4.53
2018-07-30T14:10:46.422Z,3.80
2018-07-30T14:13:15.421Z,4.07
2018-07-30T14:15:44.325Z,4.93
2018-07-30T14:18:13.237Z,3.80
2018-07-30T14:20:42.158Z,4.27
2018-07-30T14:23:11.046Z,4.47
2018-07-30T14:25:40.030Z,3.37
2018-07-30T14:28:08.895Z,3.87
2018-07-30T14:30:37.802Z,4.33
2018-07-30T14:33:07.018Z,4.00
2018-07-30T14:35:36.065Z,3.47
2018-07-30T14:38:04.963Z,3.67
2018-07-30T14:40:33.865Z,4.00
2018-07-30T14:43:02.822Z,3.50
2018-07-30T14:45:31.794Z,3.67
2018-07-30T14:48:00.917Z,4.30
2018-07-30T14:50:29.839Z,4.87
2018-07-30T14:52:58.775Z,4.57
2018-07-30T14:55:27.682Z,4.20
2018-07-30T14:57:56.618Z,4.47
2018-07-30T15:00:25.479Z,3.53
2018-07-30T15:02:54.398Z,3.90
2018-07-30T15:05:23.638Z,3.87
2018-07-30T15:07:52.853Z,3.50
2018-07-30T15:10:21.729Z,3.63
2018-07-30T15:12:50.689Z,4.30
2018-07-30T15:15:19.578Z,3.97
2018-07-30T15:17:48.510Z,3.73
2018-07-30T15:20:17.389Z,3.67
2018-07-30T15:22:46.285Z,3.93
2018-07-30T15:25:15.159Z,3.97
2018-07-30T15:27:44.298Z,3.73
2018-07-30T15:30:13.173Z,4.40
2018-07-30T15:32:42.065Z,4.00
2018-07-30T15:35:10.963Z,4.47
2018-07-30T15:37:39.892Z,4.10
2018-07-30T15:40:08.777Z,4.23
2018-07-30T15:42:37.662Z,3.87
2018-07-30T15:45:06.553Z,4.37
2018-07-30T15:47:35.468Z,4.50
2018-07-30T15:50:04.782Z,4.33
2018-07-30T15:52:33.734Z,3.90
2018-07-30T15:55:02.725Z,4.23
2018-07-30T15:57:31.654Z,4.50
2018-07-30T16:00:00.678Z,3.90
2018-07-30T16:02:29.620Z,3.80
2018-07-30T16:04:58.612Z,3.70
2018-07-30T16:07:27.544Z,4.10
2018-07-30T16:09:56.414Z,3.83
2018-07-30T16:12:25.309Z,4.10
2018-07-30T16:14:54.190Z,3.80
2018-07-30T16:17:23.102Z,4.30
2018-07-30T16:19:51.973Z,4.50
2018-07-30T16:22:20.863Z,4.03
2018-07-30T16:24:49.730Z,4.23
2018-07-30T16:27:18.613Z,4.13
2018-07-30T16:29:47.529Z,3.70
2018-07-30T16:32:16.426Z,3.73
2018-07-30T16:34:45.372Z,3.97
2018-07-30T16:37:14.521Z,3.90
2018-07-30T16:39:43.551Z,4.10
2018-07-30T16:42:12.453Z,4.37
2018-07-30T16:44:41.333Z,4.77
2018-07-30T16:47:10.335Z,4.20
2018-07-30T16:49:40.088Z,3.97
2018-07-30T16:52:09.038Z,3.97
2018-07-30T16:54:38.049Z,3.63
2018-07-30T16:57:07.018Z,3.57
2018-07-30T16:59:35.970Z,3.40
2018-07-30T17:02:04.922Z,3.67
2018-07-30T17:04:33.834Z,3.37
2018-07-30T17:07:02.797Z,4.20
2018-07-30T17:09:31.717Z,4.03
2018-07-30T17:12:00.624Z,4.00
2018-07-30T17:14:29.547Z,4.07
2018-07-30T17:16:58.454Z,4.00
2018-07-30T17:19:27.362Z,4.73
2018-07-30T17:21:56.233Z,4.30
2018-07-30T17:24:25.142Z,4.00
2018-07-30T17:26:54.088Z,3.63
2018-07-30T17:29:22.987Z,3.70
2018-07-30T17:31:51.894Z,3.80
2018-07-30T17:34:20.801Z,3.73
2018-07-30T17:36:49.697Z,4.67
2018-07-30T17:39:18.293Z,4.60
2018-07-30T17:41:47.086Z,3.87
2018-07-30T17:44:15.974Z,3.80
2018-07-30T17:46:44.892Z,4.63
2018-07-30T17:49:13.877Z,3.73
2018-07-30T17:51:42.896Z,4.00
2018-07-30T17:54:11.786Z,3.60
2018-07-30T17:56:40.671Z,3.60
2018-07-30T17:59:09.943Z,4.10
2018-07-30T18:01:39.285Z,4.50
2018-07-30T18:04:09.554Z,4.93
2018-07-30T18:06:38.454Z,3.97
2018-07-30T18:09:08.970Z,4.30
2018-07-30T18:11:38.298Z,4.50
2018-07-30T18:14:07.419Z,4.50
2018-07-30T18:16:36.417Z,4.43
2018-07-30T18:19:05.349Z,4.10
2018-07-30T18:21:34.262Z,4.10
2018-07-30T18:24:02.873Z,4.60
2018-07-30T18:26:32.273Z,5.10
2018-07-30T18:29:01.170Z,4.27
2018-07-30T18:31:30.270Z,4.30
2018-07-30T18:33:59.714Z,3.87
2018-07-30T18:36:28.369Z,4.20
2018-07-30T18:38:57.166Z,4.23
2018-07-30T18:41:26.158Z,4.70
2018-07-30T18:43:55.061Z,4.40
2018-07-30T18:46:24.008Z,4.63
2018-07-30T18:48:52.875Z,4.60
2018-07-30T18:51:21.774Z,4.43
2018-07-30T18:53:50.666Z,4.67
2018-07-30T18:56:19.589Z,5.30
2018-07-30T18:58:48.465Z,3.83
2018-07-30T19:01:17.346Z,5.50
2018-07-30T19:03:46.218Z,4.77
2018-07-30T19:06:15.138Z,4.60
2018-07-30T19:08:44.042Z,4.87
2018-07-30T19:11:12.986Z,5.60
2018-07-30T19:13:41.861Z,4.83
2018-07-30T19:16:10.774Z,5.10
2018-07-30T19:18:39.642Z,5.80
2018-07-30T19:21:08.577Z,6.00
2018-07-30T19:23:37.550Z,5.70
2018-07-30T19:26:06.794Z,6.27
2018-07-30T19:28:35.661Z,5.77
2018-07-30T19:31:04.616Z,5.10
2018-07-30T19:33:33.551Z,5.50
2018-07-30T19:36:02.621Z,6.10
2018-07-30T19:38:31.550Z,6.20
2018-07-30T19:41:00.548Z,6.77
2018-07-30T19:43:29.468Z,6.43
2018-07-30T19:45:58.406Z,5.87
2018-07-30T19:48:27.310Z,5.67
2018-07-30T19:50:56.274Z,5.70
2018-07-30T19:53:25.190Z,5.83
2018-07-30T19:55:54.532Z,6.17
2018-07-30T19:58:23.574Z,6.33
2018-07-30T20:00:52.324Z,6.50
2018-07-30T20:03:21.810Z,5.83
2018-07-30T20:05:50.633Z,5.50
2018-07-30T20:08:19.591Z,5.40
2018-07-30T20:10:48.438Z,5.70
2018-07-30T20:13:17.352Z,5.50
2018-07-30T20:15:46.347Z,6.20
2018-07-30T20:18:15.563Z,5.40
2018-07-30T20:20:44.474Z,5.53
2018-07-30T20:23:13.381Z,6.17
2018-07-30T20:25:42.258Z,6.30
2018-07-30T20:28:10.854Z,5.03
2018-07-30T20:30:39.783Z,6.37
2018-07-30T20:33:08.758Z,5.93
2018-07-30T20:35:37.650Z,5.80
2018-07-30T20:38:06.635Z,6.10
2018-07-30T20:40:35.526Z,5.53
2018-07-30T20:43:04.482Z,6.60
2018-07-30T20:45:33.418Z,6.03
2018-07-30T20:48:02.311Z,6.40
2018-07-30T20:50:31.219Z,6.43
2018-07-30T20:53:00.137Z,6.47
2018-07-30T20:55:29.156Z,5.97
2018-07-30T20:57:58.547Z,6.50
2018-07-30T21:00:27.444Z,5.87
2018-07-30T21:02:56.352Z,6.33
2018-07-30T21:05:29.545Z,5.70
2018-07-30T21:07:58.486Z,6.40
2018-07-30T21:10:27.597Z,6.13
2018-07-30T21:12:56.526Z,6.20
2018-07-30T21:15:25.430Z,6.30
2018-07-30T21:17:54.310Z,6.63
2018-07-30T21:20:23.339Z,5.57
2018-07-30T21:22:52.275Z,5.77
2018-07-30T21:25:21.158Z,6.30
2018-07-30T21:27:50.035Z,6.03
2018-07-30T21:30:18.971Z,5.80
2018-07-30T21:32:47.827Z,6.10
2018-07-30T21:35:16.788Z,5.47
2018-07-30T21:37:45.659Z,6.80
2018-07-30T21:40:14.759Z,6.17
2018-07-30T21:42:43.673Z,6.30
2018-07-30T21:45:12.578Z,6.20
2018-07-30T21:47:41.436Z,6.30
2018-07-30T21:50:10.342Z,5.80
2018-07-30T21:52:39.210Z,6.57
2018-07-30T21:55:08.105Z,5.67
2018-07-30T21:57:37.016Z,6.17
2018-07-30T22:00:09.392Z,5.87
2018-07-30T22:02:38.514Z,6.50
2018-07-30T22:05:12.636Z,6.63
2018-07-30T22:07:41.669Z,7.10
2018-07-30T22:10:10.595Z,6.40
2018-07-30T22:12:39.829Z,6.37
2018-07-30T22:15:08.782Z,6.50
2018-07-30T22:17:38.035Z,6.67
2018-07-30T22:20:07.354Z,6.70
2018-07-30T22:22:37.080Z,5.83
2018-07-30T22:25:06.364Z,6.67
2018-07-30T22:27:35.281Z,7.10
2018-07-30T22:30:06.390Z,6.20
2018-07-30T22:32:35.454Z,7.13
2018-07-30T22:35:05.338Z,6.67
2018-07-30T22:37:34.225Z,6.77
2018-07-30T22:40:03.903Z,6.40
2018-07-30T22:42:32.848Z,7.10
2018-07-30T22:45:01.755Z,6.30
2018-07-30T22:47:30.674Z,5.80
2018-07-30T22:49:59.749Z,6.10
2018-07-30T22:52:28.834Z,6.50
2018-07-30T22:54:57.742Z,6.80
2018-07-30T22:57:26.673Z,7.33
2018-07-30T22:59:55.546Z,6.70
2018-07-30T23:02:24.478Z,6.57
2018-07-30T23:04:53.393Z,6.33
2018-07-30T23:07:21.969Z,6.53
2018-07-30T23:09:50.926Z,6.80
2018-07-30T23:12:19.831Z,6.40
2018-07-30T23:14:48.741Z,6.40
2018-07-30T23:17:17.631Z,6.30
2018-07-30T23:19:46.526Z,6.43
2018-07-30T23:22:15.430Z,6.87
2018-07-30T23:24:44.479Z,6.67
2018-07-30T23:27:13.359Z,7.20
2018-07-30T23:29:42.415Z,7.10
2018-07-30T23:32:11.525Z,6.20
2018-07-30T23:34:40.644Z,6.62
2018-07-30T23:37:09.749Z,7.10
2018-07-30T23:39:38.730Z,5.90
2018-07-30T23:42:07.837Z,6.80
2018-07-30T23:44:36.800Z,6.47
2018-07-30T23:47:05.926Z,6.40
2018-07-30T23:49:34.826Z,7.28
2018-07-30T23:52:03.970Z,6.78
2018-07-30T23:54:33.002Z,7.33
2018-07-30T23:57:02.045Z,6.80
2018-07-30T23:59:31.118Z,6.87
